createdAt,value
2018-03-14T00:00:18.090Z,94398.75
2018-03-14T00:02:47.020Z,94402.66
2018-03-14T00:05:15.756Z,94385.31
2018-03-14T00:07:44.577Z,94394.06
2018-03-14T00:10:13.273Z,94397.48
2018-03-14T00:12:41.976Z,94397.94
2018-03-14T00:15:10.652Z,94396.69
2018-03-14T00:17:39.577Z,94393.63
2018-03-14T00:20:08.243Z,94388.98
2018-03-14T00:22:36.907Z,94387.33
2018-03-14T00:25:05.774Z,94396.05
2018-03-14T00:27:34.435Z,94392.45
2018-03-14T00:30:03.110Z,94392.18
2018-03-14T00:32:31.971Z,94385.06
2018-03-14T00:35:00.817Z,94385.25
2018-03-14T00:37:29.542Z,94386.66
2018-03-14T00:39:58.270Z,94382.27
2018-03-14T00:42:26.932Z,94384.34
2018-03-14T00:44:55.656Z,94384.48
2018-03-14T00:47:24.408Z,94389.88
2018-03-14T00:49:53.168Z,94389.11
2018-03-14T00:52:21.909Z,94384.25
2018-03-14T00:54:50.779Z,94378.44
2018-03-14T00:57:19.502Z,94373.80
2018-03-14T00:59:48.183Z,94372.88
2018-03-14T01:02:16.885Z,94375.25
2018-03-14T01:04:45.786Z,94379.67
2018-03-14T01:07:14.468Z,94379.73
2018-03-14T01:09:43.128Z,94371.45
2018-03-14T01:12:11.635Z,94375.46
2018-03-14T01:14:40.299Z,94369.85
2018-03-14T01:17:09.007Z,94374.74
2018-03-14T01:19:37.941Z,94375.42
2018-03-14T01:22:06.690Z,94378.25
2018-03-14T01:24:35.117Z,94378.64
2018-03-14T01:27:03.813Z,94377.58
2018-03-14T01:29:32.469Z,94379.98
2018-03-14T01:32:01.333Z,94380.27
2018-03-14T01:34:30.218Z,94372.14
2018-03-14T01:36:59.080Z,94375.05
2018-03-14T01:39:27.586Z,94370.88
2018-03-14T01:41:56.382Z,94370.08
2018-03-14T01:44:25.127Z,94372.82
2018-03-14T01:46:53.902Z,94361.97
2018-03-14T01:49:22.513Z,94358.47
2018-03-14T01:51:51.437Z,94359.38
2018-03-14T01:54:20.312Z,94354.16
2018-03-14T01:56:48.997Z,94355.20
2018-03-14T01:59:17.666Z,94347.83
2018-03-14T02:01:46.328Z,94348.77
2018-03-14T02:04:15.002Z,94349.16
2018-03-14T02:06:43.962Z,94348.63
2018-03-14T02:09:12.654Z,94353.77
2018-03-14T02:11:41.419Z,94356.59
2018-03-14T02:14:10.084Z,94358.85
2018-03-14T02:16:38.825Z,94354.22
2018-03-14T02:19:07.521Z,94356.92
2018-03-14T02:21:36.393Z,94360.14
2018-03-14T02:24:05.090Z,94362.08
2018-03-14T02:26:33.753Z,94361.56
2018-03-14T02:29:02.420Z,94358.91
2018-03-14T02:31:31.222Z,94360.58
2018-03-14T02:34:00.002Z,94358.08
2018-03-14T02:36:40.199Z,94360.22
2018-03-14T02:39:09.319Z,94363.84
2018-03-14T02:41:38.193Z,94364.06
2018-03-14T02:44:06.943Z,94363.21
2018-03-14T02:46:35.606Z,94371.88
2018-03-14T02:49:04.361Z,94362.77
2018-03-14T02:51:33.040Z,94361.28
2018-03-14T02:54:01.753Z,94373.31
2018-03-14T02:56:30.407Z,94369.93
2018-03-14T02:58:59.069Z,94366.82
2018-03-14T03:01:27.949Z,94362.83
2018-03-14T03:03:56.605Z,94372.81
2018-03-14T03:06:25.252Z,94376.56
2018-03-14T03:08:53.908Z,94373.14
2018-03-14T03:11:22.612Z,94373.75
2018-03-14T03:13:51.265Z,94374.85
2018-03-14T03:16:19.920Z,94376.36
2018-03-14T03:18:48.666Z,94381.86
2018-03-14T03:21:17.376Z,94386.38
2018-03-14T03:23:46.028Z,94383.50
2018-03-14T03:26:14.718Z,94382.66
2018-03-14T03:28:43.603Z,94396.33
2018-03-14T03:31:12.626Z,94390.17
2018-03-14T03:33:41.287Z,94394.83
2018-03-14T03:36:10.002Z,94390.52
2018-03-14T03:38:38.798Z,94393.70
2018-03-14T03:41:07.531Z,94390.05
2018-03-14T03:43:36.177Z,94393.48
2018-03-14T03:46:04.878Z,94391.20
2018-03-14T03:48:33.545Z,94387.33
2018-03-14T03:51:02.183Z,94394.34
2018-03-14T03:53:30.944Z,94396.80
2018-03-14T03:55:59.653Z,94396.46
2018-03-14T03:58:28.366Z,94393.08
2018-03-14T04:00:57.005Z,94396.53
2018-03-14T04:03:25.805Z,94395.11
2018-03-14T04:05:54.510Z,94405.94
2018-03-14T04:08:23.306Z,94402.34
2018-03-14T04:10:52.057Z,94401.76
2018-03-14T04:13:20.706Z,94396.09
2018-03-14T04:15:49.498Z,94396.36
2018-03-14T04:18:18.186Z,94401.57
2018-03-14T04:20:46.825Z,94399.91
2018-03-14T04:23:15.572Z,94397.77
2018-03-14T04:25:44.305Z,94402.25
2018-03-14T04:28:13.042Z,94404.45
2018-03-14T04:30:41.805Z,94401.58
2018-03-14T04:33:10.457Z,94403.45
2018-03-14T04:35:39.112Z,94403.51
2018-03-14T04:38:07.823Z,94403.69
2018-03-14T04:40:36.493Z,94411.78
2018-03-14T04:43:04.922Z,94410.25
2018-03-14T04:45:33.420Z,94412.66
2018-03-14T04:48:02.078Z,94414.91
2018-03-14T04:50:30.740Z,94416.73
2018-03-14T04:52:59.383Z,94417.06
2018-03-14T04:55:28.134Z,94414.32
2018-03-14T04:57:56.792Z,94411.17
2018-03-14T05:00:25.517Z,94421.88
2018-03-14T05:02:54.239Z,94406.66
2018-03-14T05:05:22.956Z,94416.05
2018-03-14T05:07:51.645Z,94418.93
2018-03-14T05:10:20.301Z,94421.94
2018-03-14T05:12:48.945Z,94412.39
2018-03-14T05:15:17.709Z,94424.86
2018-03-14T05:17:46.360Z,94427.27
2018-03-14T05:20:15.016Z,94428.97
2018-03-14T05:22:43.669Z,94434.53
2018-03-14T05:25:12.369Z,94443.22
2018-03-14T05:27:41.089Z,94444.21
2018-03-14T05:30:09.849Z,94442.16
2018-03-14T05:32:38.509Z,94448.25
2018-03-14T05:35:07.224Z,94446.00
2018-03-14T05:37:35.941Z,94452.23
2018-03-14T05:40:04.648Z,94447.28
2018-03-14T05:42:33.362Z,94452.52
2018-03-14T05:45:02.042Z,94450.59
2018-03-14T05:47:30.698Z,94446.09
2018-03-14T05:49:59.391Z,94452.84
2018-03-14T05:52:28.041Z,94450.80
2018-03-14T05:54:56.919Z,94448.85
2018-03-14T05:57:25.670Z,94448.92
2018-03-14T05:59:54.405Z,94446.59
2018-03-14T06:02:23.066Z,94449.63
2018-03-14T06:04:51.777Z,94453.94
2018-03-14T06:07:20.429Z,94455.34
2018-03-14T06:09:49.139Z,94455.89
2018-03-14T06:12:17.886Z,94462.94
2018-03-14T06:14:46.596Z,94462.40
2018-03-14T06:17:15.328Z,94470.81
2018-03-14T06:19:43.969Z,94474.71
2018-03-14T06:22:12.614Z,94475.03
2018-03-14T06:24:41.325Z,94476.88
2018-03-14T06:27:10.037Z,94478.97
2018-03-14T06:29:38.797Z,94477.63
2018-03-14T06:32:07.452Z,94488.84
2018-03-14T06:34:36.329Z,94486.33
2018-03-14T06:37:04.979Z,94493.62
2018-03-14T06:39:33.645Z,94497.47
2018-03-14T06:42:02.381Z,94493.45
2018-03-14T06:44:31.027Z,94503.72
2018-03-14T06:46:59.693Z,94501.70
2018-03-14T06:49:28.453Z,94496.97
2018-03-14T06:51:57.119Z,94504.22
2018-03-14T06:54:25.604Z,94505.28
2018-03-14T06:56:54.263Z,94509.91
2018-03-14T06:59:33.999Z,94523.19
2018-03-14T07:02:13.945Z,94513.33
2018-03-14T07:05:06.616Z,94518.48
2018-03-14T07:07:35.273Z,94519.91
2018-03-14T07:10:03.714Z,94511.09
2018-03-14T07:12:32.382Z,94515.94
2018-03-14T07:15:01.091Z,94516.70
2018-03-14T07:17:30.048Z,94518.71
2018-03-14T07:19:58.890Z,94514.22
2018-03-14T07:22:27.745Z,94518.15
2018-03-14T07:24:56.392Z,94516.19
2018-03-14T07:27:25.225Z,94529.67
2018-03-14T07:29:53.895Z,94525.91
2018-03-14T07:32:22.694Z,94525.39
2018-03-14T07:34:51.459Z,94535.39
2018-03-14T07:37:20.107Z,94534.31
2018-03-14T07:39:48.842Z,94537.41
2018-03-14T07:42:17.511Z,94530.41
2018-03-14T07:44:46.247Z,94537.56
2018-03-14T07:47:14.953Z,94535.66
2018-03-14T07:49:43.678Z,94538.83
2018-03-14T07:52:12.338Z,94542.46
2018-03-14T07:54:41.028Z,94542.73
2018-03-14T07:57:10.288Z,94537.56
2018-03-14T07:59:39.005Z,94538.41
2018-03-14T08:02:07.958Z,94538.23
2018-03-14T08:04:36.811Z,94537.53
2018-03-14T08:07:05.640Z,94540.56
2018-03-14T08:09:34.555Z,94540.16
2018-03-14T08:12:03.403Z,94539.03
2018-03-14T08:14:32.235Z,94537.28
2018-03-14T08:17:01.087Z,94538.34
2018-03-14T08:19:29.965Z,94533.55
2018-03-14T08:21:58.936Z,94531.53
2018-03-14T08:24:27.726Z,94527.82
2018-03-14T08:26:56.579Z,94538.77
2018-03-14T08:29:25.428Z,94540.63
2018-03-14T08:31:54.275Z,94536.75
2018-03-14T08:34:23.243Z,94543.90
2018-03-14T08:36:52.269Z,94536.87
2018-03-14T08:39:21.165Z,94544.75
2018-03-14T08:41:50.040Z,94524.33
2018-03-14T08:44:18.960Z,94548.62
2018-03-14T08:46:47.581Z,94538.41
2018-03-14T08:49:16.443Z,94535.16
2018-03-14T08:51:45.317Z,94542.72
2018-03-14T08:54:14.263Z,94533.81
2018-03-14T08:56:43.177Z,94533.79
2018-03-14T08:59:12.142Z,94535.81
2018-03-14T09:01:41.141Z,94526.86
2018-03-14T09:04:10.045Z,94532.05
2018-03-14T09:06:38.918Z,94525.75
2018-03-14T09:09:07.847Z,94522.41
2018-03-14T09:11:36.733Z,94523.75
2018-03-14T09:14:05.717Z,94526.83
2018-03-14T09:16:34.639Z,94521.02
2018-03-14T09:19:03.560Z,94520.80
2018-03-14T09:21:32.406Z,94527.55
2018-03-14T09:24:01.418Z,94517.12
2018-03-14T09:26:30.330Z,94520.77
2018-03-14T09:28:59.190Z,94516.03
2018-03-14T09:31:28.863Z,94518.16
2018-03-14T09:33:57.785Z,94516.36
2018-03-14T09:36:26.701Z,94512.83
2018-03-14T09:38:55.880Z,94517.42
2018-03-14T09:41:25.047Z,94509.95
2018-03-14T09:43:53.967Z,94514.52
2018-03-14T09:46:22.946Z,94514.70
2018-03-14T09:48:51.799Z,94516.81
2018-03-14T09:51:20.667Z,94509.69
2018-03-14T09:53:49.516Z,94512.45
2018-03-14T09:56:18.529Z,94514.13
2018-03-14T09:58:47.445Z,94511.09
2018-03-14T10:01:16.341Z,94513.55
2018-03-14T10:03:45.199Z,94510.68
2018-03-14T10:06:14.753Z,94514.39
2018-03-14T10:08:43.704Z,94499.66
2018-03-14T10:11:12.654Z,94505.92
2018-03-14T10:13:41.524Z,94506.11
2018-03-14T10:16:10.433Z,94498.90
2018-03-14T10:18:39.388Z,94495.78
2018-03-14T10:21:08.355Z,94495.73
2018-03-14T10:23:37.341Z,94489.37
2018-03-14T10:26:06.241Z,94486.39
2018-03-14T10:28:35.123Z,94480.42
2018-03-14T10:31:04.056Z,94479.23
2018-03-14T10:33:33.005Z,94484.81
2018-03-14T10:36:01.936Z,94489.19
2018-03-14T10:38:30.916Z,94488.92
2018-03-14T10:40:59.807Z,94490.74
2018-03-14T10:43:28.771Z,94484.91
2018-03-14T10:45:57.710Z,94484.31
2018-03-14T10:48:26.714Z,94480.44
2018-03-14T10:50:55.562Z,94492.19
2018-03-14T10:53:24.441Z,94484.73
2018-03-14T10:55:53.326Z,94470.23
2018-03-14T10:58:22.221Z,94475.55
2018-03-14T11:00:56.776Z,94476.05
2018-03-14T11:03:31.172Z,94469.33
2018-03-14T11:06:00.035Z,94460.14
2018-03-14T11:08:28.959Z,94459.84
2018-03-14T11:10:57.931Z,94457.18
2018-03-14T11:13:27.036Z,94455.31
2018-03-14T11:15:55.994Z,94462.07
2018-03-14T11:18:24.978Z,94453.37
2018-03-14T11:20:53.989Z,94451.20
2018-03-14T11:23:22.929Z,94452.30
2018-03-14T11:25:51.866Z,94444.39
2018-03-14T11:28:20.733Z,94438.83
2018-03-14T11:30:49.753Z,94445.36
2018-03-14T11:33:18.627Z,94449.52
2018-03-14T11:35:47.544Z,94431.73
2018-03-14T11:38:16.443Z,94418.88
2018-03-14T11:40:45.350Z,94419.64
2018-03-14T11:43:14.257Z,94412.83
2018-03-14T11:45:43.122Z,94414.11
2018-03-14T11:48:12.013Z,94412.82
2018-03-14T11:50:40.934Z,94407.37
2018-03-14T11:53:09.825Z,94416.80
2018-03-14T11:55:38.685Z,94423.64
2018-03-14T11:58:07.540Z,94421.13
2018-03-14T12:00:36.417Z,94414.27
2018-03-14T12:03:05.279Z,94401.05
2018-03-14T12:05:34.212Z,94380.97
2018-03-14T12:08:03.090Z,94394.58
2018-03-14T12:10:31.988Z,94393.22
2018-03-14T12:13:00.832Z,94388.11
2018-03-14T12:15:29.696Z,94409.20
2018-03-14T12:17:58.612Z,94415.50
2018-03-14T12:20:27.503Z,94391.31
2018-03-14T12:22:56.359Z,94391.73
2018-03-14T12:25:25.295Z,94403.01
2018-03-14T12:27:54.145Z,94400.85
2018-03-14T12:30:23.002Z,94390.64
2018-03-14T12:32:51.934Z,94400.10
2018-03-14T12:35:20.829Z,94386.89
2018-03-14T12:37:49.810Z,94391.94
2018-03-14T12:40:18.769Z,94394.75
2018-03-14T12:42:47.774Z,94395.70
2018-03-14T12:45:16.672Z,94393.05
2018-03-14T12:47:45.518Z,94387.57
2018-03-14T12:50:14.436Z,94386.06
2018-03-14T12:52:43.356Z,94382.00
2018-03-14T12:55:12.261Z,94405.87
2018-03-14T12:57:41.131Z,94403.27
2018-03-14T13:00:10.072Z,94407.66
2018-03-14T13:02:38.994Z,94402.19
2018-03-14T13:05:07.862Z,94412.30
2018-03-14T13:07:36.706Z,94395.47
2018-03-14T13:10:05.705Z,94397.65
2018-03-14T13:12:34.571Z,94399.23
2018-03-14T13:15:03.213Z,94390.31
2018-03-14T13:17:31.792Z,94395.33
2018-03-14T13:20:00.640Z,94390.13
2018-03-14T13:22:29.554Z,94396.08
2018-03-14T13:24:58.778Z,94394.90
2018-03-14T13:27:27.710Z,94389.41
2018-03-14T13:29:56.704Z,94389.64
2018-03-14T13:32:25.560Z,94373.08
2018-03-14T13:34:54.448Z,94368.87
2018-03-14T13:37:23.350Z,94377.67
2018-03-14T13:39:52.278Z,94377.74
2018-03-14T13:42:21.261Z,94371.41
2018-03-14T13:44:50.323Z,94375.58
2018-03-14T13:47:19.293Z,94378.08
2018-03-14T13:49:48.258Z,94371.80
2018-03-14T13:52:17.142Z,94371.94
2018-03-14T13:54:46.004Z,94371.58
2018-03-14T13:57:14.922Z,94366.59
2018-03-14T13:59:43.793Z,94369.48
2018-03-14T14:02:12.705Z,94350.15
2018-03-14T14:04:41.633Z,94363.94
2018-03-14T14:07:10.593Z,94368.13
2018-03-14T14:09:39.536Z,94369.47
2018-03-14T14:12:08.588Z,94359.67
2018-03-14T14:14:37.544Z,94369.58
2018-03-14T14:17:06.532Z,94364.20
2018-03-14T14:19:35.385Z,94358.86
2018-03-14T14:22:03.989Z,94359.98
2018-03-14T14:24:32.843Z,94377.70
2018-03-14T14:27:01.852Z,94360.14
2018-03-14T14:29:30.737Z,94361.80
2018-03-14T14:31:59.806Z,94360.94
2018-03-14T14:34:28.750Z,94360.18
2018-03-14T14:36:57.802Z,94361.73
2018-03-14T14:39:26.867Z,94348.30
2018-03-14T14:41:55.796Z,94362.17
2018-03-14T14:44:24.796Z,94351.97
2018-03-14T14:46:53.743Z,94356.84
2018-03-14T14:49:22.602Z,94351.60
2018-03-14T14:51:51.574Z,94359.26
2018-03-14T14:54:20.600Z,94353.79
2018-03-14T14:56:49.838Z,94347.78
2018-03-14T14:59:18.950Z,94347.73
2018-03-14T15:01:47.956Z,94355.54
2018-03-14T15:04:16.841Z,94341.52
2018-03-14T15:06:45.603Z,94336.04
2018-03-14T15:09:14.527Z,94320.63
2018-03-14T15:11:43.642Z,94342.92
2018-03-14T15:14:12.591Z,94346.73
2018-03-14T15:16:41.513Z,94349.98
2018-03-14T15:19:10.410Z,94359.15
2018-03-14T15:21:39.335Z,94347.38
2018-03-14T15:24:08.194Z,94358.90
2018-03-14T15:26:37.098Z,94349.84
2018-03-14T15:29:06.112Z,94351.23
2018-03-14T15:31:34.996Z,94358.75
2018-03-14T15:34:03.889Z,94361.69
2018-03-14T15:36:32.762Z,94374.30
2018-03-14T15:39:01.824Z,94373.94
2018-03-14T15:41:30.720Z,94359.98
2018-03-14T15:43:59.621Z,94377.20
2018-03-14T15:46:28.489Z,94385.27
2018-03-14T15:48:57.363Z,94367.78
2018-03-14T15:51:26.308Z,94385.48
2018-03-14T15:53:55.331Z,94386.50
2018-03-14T15:56:23.961Z,94389.06
2018-03-14T15:58:52.810Z,94380.39
2018-03-14T16:01:21.864Z,94383.98
2018-03-14T16:03:50.734Z,94389.52
2018-03-14T16:06:19.698Z,94388.10
2018-03-14T16:08:48.590Z,94392.92
2018-03-14T16:11:17.681Z,94399.13
2018-03-14T16:13:46.602Z,94395.77
2018-03-14T16:16:15.631Z,94401.84
2018-03-14T16:18:44.547Z,94392.81
2018-03-14T16:21:13.800Z,94392.47
2018-03-14T16:23:42.727Z,94401.19
2018-03-14T16:26:11.810Z,94407.84
2018-03-14T16:28:41.299Z,94410.12
2018-03-14T16:31:10.805Z,94408.06
2018-03-14T16:33:39.899Z,94413.26
2018-03-14T16:36:09.022Z,94419.22
2018-03-14T16:38:37.962Z,94420.97
2018-03-14T16:41:07.066Z,94423.19
2018-03-14T16:43:36.175Z,94422.00
2018-03-14T16:46:05.318Z,94425.62
2018-03-14T16:48:34.798Z,94418.27
2018-03-14T16:51:03.559Z,94430.01
2018-03-14T16:53:32.582Z,94428.67
2018-03-14T16:56:01.638Z,94426.61
2018-03-14T16:58:31.034Z,94430.34
2018-03-14T17:00:59.955Z,94436.17
2018-03-14T17:03:29.549Z,94439.47
2018-03-14T17:05:58.916Z,94443.33
2018-03-14T17:08:27.865Z,94440.78
2018-03-14T17:10:56.751Z,94441.14
2018-03-14T17:13:25.961Z,94444.45
2018-03-14T17:15:55.159Z,94449.83
2018-03-14T17:18:24.625Z,94449.83
2018-03-14T17:20:53.596Z,94450.26
2018-03-14T17:23:22.597Z,94451.34
2018-03-14T17:25:51.696Z,94450.88
2018-03-14T17:28:20.637Z,94462.47
2018-03-14T17:30:49.529Z,94457.12
2018-03-14T17:33:18.454Z,94461.76
2018-03-14T17:35:47.338Z,94464.95
2018-03-14T17:38:16.580Z,94465.70
2018-03-14T17:40:45.558Z,94467.52
2018-03-14T17:43:14.566Z,94477.33
2018-03-14T17:45:43.608Z,94473.81
2018-03-14T17:48:12.482Z,94485.19
2018-03-14T17:50:41.568Z,94482.14
2018-03-14T17:53:10.503Z,94483.92
2018-03-14T17:55:39.464Z,94482.52
2018-03-14T17:58:08.350Z,94480.92
2018-03-14T18:00:37.310Z,94483.31
2018-03-14T18:03:07.980Z,94482.25
2018-03-14T18:05:37.034Z,94482.23
2018-03-14T18:08:05.989Z,94484.95
2018-03-14T18:10:35.034Z,94491.22
2018-03-14T18:13:04.054Z,94501.96
2018-03-14T18:15:30.397Z,94495.48
2018-03-14T18:17:56.599Z,94497.45
2018-03-14T18:20:22.928Z,94500.56
2018-03-14T18:22:49.410Z,94501.25
2018-03-14T18:25:16.039Z,94502.16
2018-03-14T18:27:42.255Z,94502.58
2018-03-14T18:30:08.629Z,94505.09
2018-03-14T18:32:34.938Z,94503.95
2018-03-14T18:35:01.553Z,94505.84
2018-03-14T18:37:27.864Z,94500.48
2018-03-14T18:39:54.150Z,94496.97
2018-03-14T18:42:20.374Z,94502.72
2018-03-14T18:44:46.638Z,94503.31
2018-03-14T18:47:12.913Z,94508.06
2018-03-14T18:49:39.219Z,94503.71
2018-03-14T18:52:05.651Z,94500.22
2018-03-14T18:54:31.942Z,94504.14
2018-03-14T18:56:58.257Z,94508.78
2018-03-14T18:59:24.647Z,94501.95
2018-03-14T19:01:51.428Z,94504.03
2018-03-14T19:04:18.380Z,94503.45
2018-03-14T19:06:44.951Z,94499.76
2018-03-14T19:09:11.280Z,94502.27
2018-03-14T19:11:37.606Z,94504.02
2018-03-14T19:14:03.837Z,94504.56
2018-03-14T19:16:30.094Z,94508.53
2018-03-14T19:18:56.420Z,94508.66
2018-03-14T19:21:22.694Z,94509.30
2018-03-14T19:23:48.962Z,94505.87
2018-03-14T19:26:15.205Z,94514.86
2018-03-14T19:28:41.458Z,94506.53
2018-03-14T19:31:07.723Z,94515.20
2018-03-14T19:33:34.019Z,94512.45
2018-03-14T19:36:00.361Z,94519.98
2018-03-14T19:38:26.594Z,94525.13
2018-03-14T19:40:52.870Z,94521.92
2018-03-14T19:43:19.106Z,94523.45
2018-03-14T19:45:45.394Z,94525.06
2018-03-14T19:48:11.905Z,94525.31
2018-03-14T19:50:38.814Z,94517.27
2018-03-14T19:53:05.092Z,94526.76
2018-03-14T19:55:31.406Z,94527.05
2018-03-14T19:57:57.737Z,94530.76
2018-03-14T20:00:23.976Z,94532.88
2018-03-14T20:02:50.221Z,94530.70
2018-03-14T20:05:16.546Z,94533.27
2018-03-14T20:07:42.958Z,94535.80
2018-03-14T20:10:09.232Z,94533.46
2018-03-14T20:12:35.451Z,94538.41
2018-03-14T20:15:01.694Z,94533.97
2018-03-14T20:17:27.994Z,94537.95
2018-03-14T20:19:54.274Z,94544.02
2018-03-14T20:22:20.624Z,94537.63
2018-03-14T20:24:46.966Z,94537.73
2018-03-14T20:27:13.243Z,94540.81
2018-03-14T20:29:39.586Z,94538.89
2018-03-14T20:32:05.926Z,94540.46
2018-03-14T20:34:32.278Z,94540.08
2018-03-14T20:36:58.555Z,94543.26
2018-03-14T20:39:24.850Z,94543.36
2018-03-14T20:41:51.430Z,94542.23
2018-03-14T20:44:17.617Z,94543.75
2018-03-14T20:46:43.858Z,94542.75
2018-03-14T20:49:10.063Z,94539.33
2018-03-14T20:51:36.369Z,94537.14
2018-03-14T20:54:02.715Z,94541.27
2018-03-14T20:56:28.991Z,94543.08
2018-03-14T20:58:56.245Z,94546.28
2018-03-14T21:01:22.557Z,94542.88
2018-03-14T21:03:48.726Z,94545.23
2018-03-14T21:06:15.058Z,94547.95
2018-03-14T21:08:41.545Z,94550.50
2018-03-14T21:11:07.941Z,94549.00
2018-03-14T21:13:34.327Z,94551.53
2018-03-14T21:16:00.805Z,94553.98
2018-03-14T21:18:27.078Z,94556.19
2018-03-14T21:20:53.275Z,94557.13
2018-03-14T21:23:19.629Z,94553.31
2018-03-14T21:25:45.910Z,94553.84
2018-03-14T21:28:12.113Z,94552.94
2018-03-14T21:30:38.344Z,94561.13
2018-03-14T21:33:04.620Z,94562.52
2018-03-14T21:35:31.076Z,94559.75
2018-03-14T21:37:57.373Z,94567.98
2018-03-14T21:40:23.676Z,94565.07
2018-03-14T21:42:49.943Z,94572.46
2018-03-14T21:45:16.290Z,94577.67
2018-03-14T21:47:42.782Z,94576.73
2018-03-14T21:50:09.131Z,94579.64
2018-03-14T21:52:35.434Z,94586.26
2018-03-14T21:55:01.763Z,94574.36
2018-03-14T21:57:28.121Z,94575.04
2018-03-14T21:59:54.369Z,94578.38
2018-03-14T22:02:20.776Z,94570.16
2018-03-14T22:04:47.329Z,94575.56
2018-03-14T22:07:13.952Z,94577.27
2018-03-14T22:09:40.443Z,94567.67
2018-03-14T22:12:06.848Z,94564.59
2018-03-14T22:14:33.088Z,94575.33
2018-03-14T22:16:59.389Z,94571.20
2018-03-14T22:19:25.645Z,94573.89
2018-03-14T22:21:51.998Z,94575.40
2018-03-14T22:24:18.530Z,94577.58
2018-03-14T22:26:45.087Z,94580.84
2018-03-14T22:29:11.391Z,94581.58
2018-03-14T22:31:37.675Z,94583.36
2018-03-14T22:34:04.046Z,94584.33
2018-03-14T22:36:30.289Z,94572.13
2018-03-14T22:39:04.550Z,94575.95
2018-03-14T22:41:30.848Z,94578.89
2018-03-14T22:43:57.175Z,94576.64
2018-03-14T22:46:23.486Z,94580.78
2018-03-14T22:48:49.917Z,94581.69
2018-03-14T22:51:16.212Z,94585.73
2018-03-14T22:53:42.509Z,94588.77
2018-03-14T22:56:08.822Z,94593.48
2018-03-14T22:58:35.114Z,94592.67
2018-03-14T23:01:01.386Z,94596.25
2018-03-14T23:03:27.861Z,94592.66
2018-03-14T23:05:54.347Z,94595.61
2018-03-14T23:08:20.687Z,94598.92
2018-03-14T23:10:47.128Z,94594.63
2018-03-14T23:13:13.307Z,94600.63
2018-03-14T23:15:39.694Z,94596.97
2018-03-14T23:18:06.020Z,94606.45
2018-03-14T23:20:32.231Z,94602.84
2018-03-14T23:22:58.672Z,94596.46
2018-03-14T23:25:24.932Z,94599.67
2018-03-14T23:27:51.202Z,94604.56
2018-03-14T23:30:17.531Z,94603.17
2018-03-14T23:32:44.140Z,94600.08
2018-03-14T23:35:10.709Z,94600.48
2018-03-14T23:37:37.076Z,94595.35
2018-03-14T23:40:04.983Z,94592.44
2018-03-14T23:42:31.278Z,94605.25
2018-03-14T23:44:57.619Z,94602.78
2018-03-14T23:47:24.238Z,94607.38
2018-03-14T23:49:50.553Z,94609.30
2018-03-14T23:52:17.019Z,94610.25
2018-03-14T23:54:43.849Z,94612.00
2018-03-14T23:57:10.487Z,94603.98
2018-03-14T23:59:36.816Z,94613.37
